Biggs Field, Texas
Current Conditions -  °F | °C
As of 10:58 AM on Saturday 20 Dec 2014 (Local Time) from KBIF Reporting Station
Clear Clear  
Wind Chill: 47°   Ceiling: Unl
Heat Index: 47°   Visibility: 7mi
Dew Point: 26°   Wind: 1mph
Humidity: 43%   Direction: 280°W
Pressure: 30.17"   Gusts: NA
Location:  31.8457°N, 106.377°W
Report Text: KBIF 201758Z AUTO 28001KT 7SM CLR 09/M03 A3017 RMK AO2 SLP203 T00861035 10086 21048 50000 $
Loading
Personal Weather Stations






























Interactive Weather Map New forecast layout! Learn more

10-Day Weather Forecast

Advertisements
Track Severe Weather on mobile